In Rescue
 
Open Full Screen Window  High Contrast Mode
Wind Gusting 14 knots
10
October 29, 2020 11:43 PM EDT
Present Weather: Rain
Weather Information
Wind Direction
  010 °
Wind Speed
  10 kt (12 mph)
Wind Gust
  14 kt (16 mph)
Altimeter
29.99 in
Visibility
7 SM
Temperature
02° C
36° F
Dewpoint
01° C
34° F
Humidity
93%
Sky Condition
Overcast @ 1,400 ft
MVFR

METAR KHYX 300343Z AUTO 01010G14KT 7SM RA OVC014 02/01 A2999 RMK AO2

FAA Disclaimer: The data displayed is for advisory purposes only and is not to be used for flight planning or operations.